createdAt,value
2022-09-02T00:02:26.485Z,97322.44
2022-09-02T00:07:28.286Z,97307.59
2022-09-02T00:12:30.045Z,97309.81
2022-09-02T00:17:32.010Z,97298.84
2022-09-02T00:22:33.744Z,97298.84
2022-09-02T00:27:35.408Z,97305.41
2022-09-02T00:32:37.322Z,97305.34
2022-09-02T00:37:39.018Z,97305.56
2022-09-02T00:42:41.488Z,97294.22
2022-09-02T00:47:43.137Z,97296.38
2022-09-02T00:52:50.510Z,97295.13
2022-09-02T00:58:02.034Z,97292.16
2022-09-02T01:03:06.995Z,97292.16
2022-09-02T01:08:09.620Z,97290.00
2022-09-02T01:13:15.466Z,97291.41
2022-09-02T01:18:21.818Z,97290.84
2022-09-02T01:23:23.794Z,97288.59
2022-09-02T01:28:27.009Z,97286.13
2022-09-02T01:33:29.161Z,97292.16
2022-09-02T01:38:33.400Z,97283.09
2022-09-02T01:43:35.131Z,97276.28
2022-09-02T01:48:36.915Z,97272.41
2022-09-02T01:53:38.663Z,97271.38
2022-09-02T01:58:42.786Z,97281.84
2022-09-02T02:03:45.400Z,97268.44
2022-09-02T02:08:47.361Z,97264.84
2022-09-02T02:13:49.776Z,97264.31
2022-09-02T02:18:51.679Z,97271.47
2022-09-02T02:23:55.121Z,97260.50
2022-09-02T02:28:56.977Z,97255.56
2022-09-02T02:33:59.823Z,97261.06
2022-09-02T02:39:01.992Z,97254.16
2022-09-02T02:44:04.697Z,97256.38
2022-09-02T02:49:09.418Z,97251.19
2022-09-02T02:54:14.302Z,97255.59
2022-09-02T02:59:16.377Z,97250.63
2022-09-02T03:04:18.464Z,97248.72
2022-09-02T03:09:20.601Z,97243.78
2022-09-02T03:14:22.558Z,97245.13
2022-09-02T03:19:24.394Z,97242.41
2022-09-02T03:24:27.966Z,97232.00
2022-09-02T03:29:29.931Z,97229.25
2022-09-02T03:34:33.213Z,97233.34
2022-09-02T03:39:37.242Z,97225.41
2022-09-02T03:44:40.271Z,97219.94
2022-09-02T03:49:43.692Z,97226.50
2022-09-02T03:54:47.209Z,97227.34
2022-09-02T03:59:49.222Z,97223.75
2022-09-02T04:04:51.026Z,97220.44
2022-09-02T04:09:52.948Z,97216.03
2022-09-02T04:14:54.959Z,97219.31
2022-09-02T04:19:59.794Z,97217.69
2022-09-02T04:25:01.852Z,97222.09
2022-09-02T04:30:04.305Z,97226.19
2022-09-02T04:35:09.707Z,97222.59
2022-09-02T04:40:13.190Z,97221.50
2022-09-02T04:45:15.983Z,97229.72
2022-09-02T04:50:19.034Z,97226.94
2022-09-02T04:55:33.586Z,97233.00
2022-09-02T05:00:38.783Z,97226.47
2022-09-02T05:05:43.349Z,97239.06
2022-09-02T05:10:50.025Z,97235.81
2022-09-02T05:15:52.790Z,97238.56
2022-09-02T05:20:54.785Z,97241.31
2022-09-02T05:25:56.734Z,97236.38
2022-09-02T05:31:08.864Z,97240.22
2022-09-02T05:36:17.585Z,97240.19
2022-09-02T05:41:23.400Z,97241.84
2022-09-02T05:46:29.295Z,97240.72
2022-09-02T05:51:42.789Z,97244.03
2022-09-02T05:56:46.481Z,97231.38
2022-09-02T06:01:50.542Z,97232.69
2022-09-02T06:06:53.007Z,97230.75
2022-09-02T06:11:57.131Z,97238.88
2022-09-02T06:17:05.354Z,97230.59
2022-09-02T06:22:15.079Z,97225.84
2022-09-02T06:27:18.430Z,97224.31
2022-09-02T06:32:23.775Z,97218.09
2022-09-02T06:37:30.890Z,97221.47
2022-09-02T06:42:33.791Z,97225.38
2022-09-02T06:47:43.419Z,97232.38
2022-09-02T06:52:45.942Z,97224.13
2022-09-02T06:57:48.952Z,97219.16
2022-09-02T07:03:12.017Z,97224.09
2022-09-02T07:08:13.964Z,97217.00
2022-09-02T07:13:17.371Z,97221.41
2022-09-02T07:18:19.298Z,97204.00
2022-09-02T07:23:21.488Z,97210.13
2022-09-02T07:28:23.569Z,97209.34
2022-09-02T07:33:25.877Z,97220.66
2022-09-02T07:38:27.895Z,97221.72
2022-09-02T07:43:31.547Z,97227.81
2022-09-02T07:48:34.625Z,97222.66
2022-09-02T07:53:36.805Z,97219.50
2022-09-02T07:58:40.926Z,97218.78
2022-09-02T08:03:44.916Z,97210.47
2022-09-02T08:08:47.345Z,97212.41
2022-09-02T08:13:49.450Z,97211.78
2022-09-02T08:18:51.777Z,97210.13
2022-09-02T08:23:53.606Z,97214.56
2022-09-02T08:28:56.130Z,97210.66
2022-09-02T08:33:59.545Z,97208.66
2022-09-02T08:39:03.602Z,97209.41
2022-09-02T08:44:07.036Z,97207.41
2022-09-02T08:49:12.861Z,97206.00
2022-09-02T08:54:48.576Z,97193.00
2022-09-02T08:59:52.313Z,97190.31
2022-09-02T09:05:12.641Z,97182.88
2022-09-02T09:10:25.967Z,97187.47
2022-09-02T09:16:09.480Z,97178.69
2022-09-02T09:21:11.786Z,97180.25
2022-09-02T09:26:17.588Z,97174.03
2022-09-02T09:31:21.994Z,97168.66
2022-09-02T09:36:39.570Z,97158.19
2022-09-02T09:41:41.659Z,97163.75
2022-09-02T09:46:43.382Z,97157.03
2022-09-02T09:51:54.923Z,97151.66
2022-09-02T09:57:15.107Z,97148.06
2022-09-02T10:02:24.090Z,97142.91
2022-09-02T10:07:40.028Z,97144.19
2022-09-02T10:12:41.838Z,97144.19
2022-09-02T10:17:55.721Z,97139.38
2022-09-02T10:23:18.378Z,97136.53
2022-09-02T10:28:26.411Z,97132.38
2022-09-02T10:33:57.362Z,97131.88
2022-09-02T10:39:45.760Z,97136.25
2022-09-02T10:45:19.640Z,97119.16
2022-09-02T10:50:54.654Z,97126.09
2022-09-02T10:56:04.826Z,97119.66
2022-09-02T11:01:17.239Z,97102.53
2022-09-02T11:06:31.703Z,97106.69
2022-09-02T11:11:45.194Z,97096.31
2022-09-02T11:17:03.398Z,97097.69
2022-09-02T11:22:08.117Z,97087.22
2022-09-02T11:27:38.976Z,97087.84
2022-09-02T11:32:59.661Z,97087.06
2022-09-02T11:38:05.372Z,97080.56
2022-09-02T11:43:37.358Z,97068.34
2022-09-02T11:48:57.850Z,97073.25
2022-09-02T11:54:03.133Z,97062.34
2022-09-02T11:59:07.869Z,97060.88
2022-09-02T12:09:46.863Z,97057.78
2022-09-02T12:14:50.337Z,97051.00
2022-09-02T12:19:52.022Z,97056.41
2022-09-02T12:24:59.286Z,97053.84
2022-09-02T12:30:01.890Z,97050.19
2022-09-02T12:35:28.863Z,97051.22
2022-09-02T12:40:35.820Z,97046.69
2022-09-02T12:45:43.770Z,97038.06
2022-09-02T12:50:58.956Z,97031.06
2022-09-02T12:56:18.538Z,97034.09
2022-09-02T13:01:53.317Z,97019.13
2022-09-02T13:07:46.703Z,97015.75
2022-09-02T13:13:16.237Z,97011.91
2022-09-02T13:18:39.790Z,97004.56
2022-09-02T13:24:05.996Z,96999.66
2022-09-02T13:29:30.422Z,97000.97
2022-09-02T13:34:32.350Z,96997.75
2022-09-02T13:39:34.103Z,97002.34
2022-09-02T13:44:35.872Z,96994.84
2022-09-02T13:49:40.906Z,96996.00
2022-09-02T13:54:49.421Z,96995.69
2022-09-02T13:59:56.052Z,96989.16
2022-09-02T14:05:13.800Z,96980.94
2022-09-02T14:10:19.697Z,96972.22
2022-09-02T14:15:27.636Z,96970.38
2022-09-02T14:20:30.575Z,96970.75
2022-09-02T14:25:38.115Z,96964.41
2022-09-02T14:30:41.481Z,96958.69
2022-09-02T14:36:05.238Z,96952.75
2022-09-02T14:41:20.329Z,96947.34
2022-09-02T14:46:45.453Z,96949.53
2022-09-02T14:51:50.940Z,96945.50
2022-09-02T14:56:53.873Z,96944.50
2022-09-02T15:01:58.268Z,96932.69
2022-09-02T15:07:00.515Z,96922.56
2022-09-02T15:12:03.172Z,96926.63
2022-09-02T15:17:08.788Z,96915.47
2022-09-02T15:22:11.174Z,96909.41
2022-09-02T15:27:13.667Z,96916.13
2022-09-02T15:32:15.688Z,96917.69
2022-09-02T15:37:17.365Z,96922.19
2022-09-02T15:42:19.414Z,96913.00
2022-09-02T15:47:21.094Z,96914.03
2022-09-02T15:52:23.716Z,96909.16
2022-09-02T15:57:25.617Z,96899.28
2022-09-02T16:02:27.480Z,96891.66
2022-09-02T16:07:29.261Z,96886.06
2022-09-02T16:12:32.158Z,96891.34
2022-09-02T16:17:33.783Z,96886.69
2022-09-02T16:22:35.461Z,96887.25
2022-09-02T16:27:52.397Z,96885.84
2022-09-02T16:32:54.117Z,96889.50
2022-09-02T16:37:57.384Z,96884.88
2022-09-02T16:43:24.693Z,96877.59
2022-09-02T16:48:26.476Z,96880.06
2022-09-02T16:53:28.276Z,96879.25
2022-09-02T16:58:31.031Z,96884.84
2022-09-02T17:03:33.400Z,96889.81
2022-09-02T17:08:35.539Z,96879.03
2022-09-02T17:13:37.281Z,96881.56
2022-09-02T17:18:39.009Z,96883.22
2022-09-02T17:23:40.961Z,96881.28
2022-09-02T17:28:50.242Z,96897.59
2022-09-02T17:33:54.109Z,96895.94
2022-09-02T17:39:02.446Z,96893.50
2022-09-02T17:44:04.199Z,96893.00
2022-09-02T17:49:16.966Z,96896.81
2022-09-02T17:54:19.896Z,96898.53
2022-09-02T17:59:30.476Z,96899.66
2022-09-02T18:04:34.285Z,96910.50
2022-09-02T18:09:37.416Z,96910.16
2022-09-02T18:14:47.634Z,96912.06
2022-09-02T18:19:58.857Z,96906.84
2022-09-02T18:25:42.944Z,96912.47
2022-09-02T18:31:00.746Z,96917.75
2022-09-02T18:36:40.318Z,96901.13
2022-09-02T18:42:11.169Z,96909.81
2022-09-02T18:47:17.702Z,96922.06
2022-09-02T18:52:26.229Z,96919.31
2022-09-02T18:57:33.907Z,96917.03
2022-09-02T19:02:50.221Z,96929.09
2022-09-02T19:08:20.992Z,96932.75
2022-09-02T19:13:22.766Z,96946.66
2022-09-02T19:18:25.770Z,96948.56
2022-09-02T19:23:29.494Z,96955.34
2022-09-02T19:28:31.543Z,96959.03
2022-09-02T19:33:36.388Z,96963.53
2022-09-02T19:38:39.198Z,96968.38
2022-09-02T19:43:41.166Z,96956.38
2022-09-02T19:48:42.852Z,96958.50
2022-09-02T19:53:45.661Z,96943.00
2022-09-02T19:58:47.457Z,96946.31
2022-09-02T20:03:49.098Z,96942.50
2022-09-02T20:08:51.686Z,96947.69
2022-09-02T20:13:53.421Z,96958.69
2022-09-02T20:18:56.695Z,96962.63
2022-09-02T20:24:14.533Z,96951.69
2022-09-02T20:30:00.995Z,96952.78
2022-09-02T20:35:24.620Z,96946.59
2022-09-02T20:40:36.233Z,96953.59
2022-09-02T20:45:38.067Z,96956.84
2022-09-02T20:51:10.704Z,96952.38
2022-09-02T20:56:30.201Z,96945.28
2022-09-02T21:01:36.649Z,96946.56
2022-09-02T21:06:49.782Z,96956.16
2022-09-02T21:12:02.944Z,96942.00
2022-09-02T21:17:10.606Z,96938.81
2022-09-02T21:22:21.607Z,96941.72
2022-09-02T21:27:33.434Z,96948.59
2022-09-02T21:32:49.151Z,96942.06
2022-09-02T21:37:58.024Z,96951.53
2022-09-02T21:43:37.654Z,96953.41
2022-09-02T21:48:55.567Z,96962.34
2022-09-02T21:54:06.331Z,96953.72
2022-09-02T21:59:53.536Z,96946.44
2022-09-02T22:05:05.237Z,96939.72
2022-09-02T22:10:13.113Z,96954.16
2022-09-02T22:15:22.051Z,96948.94
2022-09-02T22:20:31.340Z,96945.00
2022-09-02T22:25:36.000Z,96941.72
2022-09-02T22:30:43.802Z,96950.34
2022-09-02T22:36:00.602Z,96947.41
2022-09-02T22:41:38.524Z,96945.13
2022-09-02T22:47:19.650Z,96949.09
2022-09-02T22:52:45.934Z,96958.09
2022-09-02T22:58:21.108Z,96953.03
2022-09-02T23:03:49.218Z,96953.13
2022-09-02T23:08:51.212Z,96947.38
2022-09-02T23:14:09.008Z,96931.81
2022-09-02T23:19:38.634Z,96922.78
2022-09-02T23:24:44.971Z,96913.06
2022-09-02T23:29:50.218Z,96911.78
2022-09-02T23:35:13.841Z,96905.75
2022-09-02T23:41:17.910Z,96910.56
2022-09-02T23:46:51.696Z,96908.13
2022-09-02T23:52:16.585Z,96920.81
2022-09-02T23:57:42.573Z,96918.66
